Heidelberg, Mississippi
Current Conditions -  °F | °C
As of 11:58 PM on Wednesday 22 Oct 2014 (Local Time) from KMEI Reporting Station
Clear Clear  
Wind Chill: 47°   Ceiling: Unl
Heat Index: 47°   Visibility: 10mi
Dew Point: 44°   Wind: 0mph
Humidity: 90%   Direction: NA
Pressure: 30.13"   Gusts: NA
Location:  31.89°N, 88.98°W
Report Text: KMEI 230458Z AUTO 00000KT 10SM CLR 08/07 A3013 RMK AO2 SLP200 T00830067
Loading
Personal Weather Stations






























Interactive Weather Map New forecast layout! Learn more

10-Day Weather Forecast

Advertisements
Track Severe Weather on mobile